Historyczne dane pomiarowe

Dodano dane terminowe – wersja testowa.

Dane z okresu 1951-2019

Wersja bazy: 1.34 [2019-03-16, lista zmian], aktualizacja planowana na 2019-04-15

Dane meteo z obszaru Polski uzyskane na podstawie danych udostępnionych przez Instytut Meteorologii i Gospodarki Wodnej – Państwowy Instytut Badawczy.

 

Wybierz Datę:    

       

TemperaturaWilgotnośćWiatrCiśnienieOpadyŚniegCzas trwania zjawisk
 Stacja t tx tn tng RH VA  wxwx mslp ppp RRR   cm mm wxwxwxwxwxwxwx
1996-08-13 17.8 22.0 12.7 10.7 71.0- 8.0 3.7---- 0.5------------
1996-08-14 16.4 20.1 14.6 12.4 98.8- 8.0 1.7---- 13.7------------
1996-08-15 17.8 23.0 14.2 14.5 89.8- 6.7 1.0---- 0.0------------
1996-08-16 16.7 22.1 11.3 9.1 89.3- 6.7 2.0---- 2.5------------
1996-08-17 19.5 26.4 14.7 12.7 75.8- 5.7 3.0---- 0.0------------
1996-08-18 20.2 27.8 13.2 8.9 59.0- 1.3 1.7---- 0.0------------
1996-08-19 20.4 28.5 12.9 9.3 63.8- 2.0 2.0---- 0.0------------
1996-08-20 20.6 28.3 13.2 9.5 57.8- 2.7 2.0---- 0.0------------
1996-08-21 21.2 27.3 14.5 10.3 70.8- 5.3 0.3---- 0.9------------
1996-08-22 19.6 23.3 16.3 14.5 83.8- 6.0 3.7---- 0.0------------
1996-08-23 20.6 28.2 15.9 13.5 70.3- 4.0 4.0---- 1.4------------
1996-08-24 19.9 27.3 14.6 10.7 73.8- 2.0 3.0---- 0.0------------
1996-08-25 19.6 26.4 14.3 12.0 80.3- 2.0 2.7---- 0.0------------
1996-08-26 17.4 21.5 13.3 12.5 90.5- 7.7 2.0---- 0.0------------
1996-08-27 17.9 22.6 14.5 12.0 90.0- 8.0 1.3---- 0.1------------
1996-08-28 18.9 25.0 14.0 13.0 73.5- 3.3 5.0---- 0.0------------
1996-08-29 17.3 21.0 14.8 13.5 77.0- 7.3 2.7---- 1.9------------
1996-08-30 18.5 24.1 12.9 11.0 58.8- 7.0 1.7---- 2.5------------
1996-08-31 16.7 23.2 11.7 10.8 84.0- 7.3 2.0---- 0.0------------
1996-09-01 18.4 23.9 14.6 13.8 83.5- 7.0 2.3---- 0.0------------
1996-09-02 19.1 26.2 13.8 11.0 57.8- 4.7 2.7---- 0.0------------
1996-09-03 19.1 26.6 13.8 10.3 75.0- 3.0 2.7---- 0.0------------
1996-09-04 15.5 21.1 12.1 10.2 86.8- 4.7 3.0---- 0.8------------
1996-09-05 13.2 18.3 10.8 10.0 77.0- 5.7 3.7---- 0.0------------
1996-09-06 11.7 16.7 8.6 6.9 86.3- 7.0 4.0---- 3.1------------
1996-09-07 11.9 12.9 10.2 7.9 98.8- 8.0 5.3---- 2.0------------
1996-09-08 11.4 12.9 10.3 10.0 94.8- 8.0 4.3---- 0.3------------
1996-09-09 9.4 13.0 6.3 6.1 81.5- 7.0 1.7---- 0.0------------
1996-09-10 8.6 14.3 4.9 3.3 93.5- 7.7 2.7---- 1.4------------
1996-09-11 8.1 9.6 7.2 5.4 97.0- 6.7 4.3---- 8.5------------
991.2 ms

 

Źródłem pochodzenia danych jest Instytut Meteorologii i Gospodarki Wodnej – Państwowy Instytut Badawczy. Dane Instytutu Meteorologii i Gospodarki Wodnej – Państwowego Instytutu Badawczego zostały przetworzone.

Dane źródłowe można odnaleźć na stronie https://dane.imgw.pl